Time;durP1;ratioP1;P1;durP2;ratioP2;P2;SDS_P1;SDS_P2;PMS_P1;PMS_P2;Temp;Humidity;BMP_temperature;BMP_pressure;BME280_temperature;BME280_humidity;BME280_pressure;Samples;Min_cycle;Max_cycle;Signal;HPM_P1;HPM_P2
2021/09/19 00:00:36;;;;;;;723.03;361.73;;;;;;;9.82;74.12;102075.88;5031984;28;20446;-67
2021/09/19 00:03:04;;;;;;;720.83;359.00;;;;;;;9.84;74.20;102079.38;5046199;28;20532;-68
2021/09/19 00:05:32;;;;;;;722.03;360.90;;;;;;;9.84;73.72;102082.06;5031400;28;20578;-65
2021/09/19 00:08:00;;;;;;;728.43;379.93;;;;;;;9.72;73.70;102079.88;5027943;28;20936;-67
2021/09/19 00:10:28;;;;;;;726.10;373.93;;;;;;;9.65;74.37;102082.81;5031832;28;20440;-67
2021/09/19 00:12:56;;;;;;;745.97;408.50;;;;;;;9.70;73.57;102084.44;5031835;28;20460;-67
2021/09/19 00:15:24;;;;;;;749.83;413.03;;;;;;;9.65;74.23;102081.97;5031629;28;20437;-67
2021/09/19 00:17:54;;;;;;;764.90;433.90;;;;;;;9.60;73.94;102087.53;5028936;28;20484;-67
2021/09/19 00:20:22;;;;;;;783.17;457.37;;;;;;;9.00;73.96;102003.34;5031407;28;20487;-67
2021/09/19 00:22:50;;;;;;;764.03;436.60;;;;;;;9.42;74.41;102088.28;5031788;28;20737;-66
2021/09/19 00:25:18;;;;;;;795.97;453.60;;;;;;;8.64;74.71;101967.34;5031518;28;20860;-67
2021/09/19 00:27:46;;;;;;;768.23;428.47;;;;;;;9.35;75.14;102092.16;5028302;28;20452;-67
2021/09/19 00:30:14;;;;;;;773.37;431.00;;;;;;;9.21;75.20;102102.56;5030853;28;20457;-66
2021/09/19 00:32:42;;;;;;;824.47;503.60;;;;;;;9.18;75.71;102100.84;5031445;28;20526;-66
2021/09/19 00:35:12;;;;;;;751.03;396.93;;;;;;;9.16;75.76;102100.06;5031003;28;20446;-67
2021/09/19 00:37:40;;;;;;;776.10;434.30;;;;;;;9.14;75.95;102096.56;5018231;28;21171;-66
2021/09/19 00:40:09;;;;;;;779.57;447.93;;;;;;;9.16;75.73;102096.50;5031117;28;20998;-66
2021/09/19 00:42:38;;;;;;;770.70;430.00;;;;;;;9.22;75.22;102107.00;5030949;28;20485;-68
2021/09/19 00:45:10;;;;;;;768.63;432.17;;;;;;;9.24;75.24;102103.31;5030934;28;20940;-67
2021/09/19 00:47:39;;;;;;;777.60;436.43;;;;;;;9.19;74.99;102113.34;5025928;28;20439;-66
2021/09/19 00:50:09;;;;;;;748.63;401.77;;;;;;;9.09;75.49;102108.41;5046374;28;20475;-66
2021/09/19 00:52:41;;;;;;;753.40;404.60;;;;;;;9.03;76.41;102110.41;5025381;28;20496;-67
2021/09/19 00:55:10;;;;;;;759.87;419.63;;;;;;;9.02;76.40;102110.47;5030513;28;20453;-66
2021/09/19 00:57:41;;;;;;;735.17;379.00;;;;;;;8.99;76.27;102106.09;5021971;28;20840;-67
2021/09/19 01:00:11;;;;;;;762.80;424.13;;;;;;;8.88;75.92;102084.22;5030444;28;20449;-66
2021/09/19 01:02:39;;;;;;;751.80;399.50;;;;;;;8.99;76.12;102105.22;5029354;28;20936;-67
2021/09/19 01:05:09;;;;;;;767.07;427.37;;;;;;;8.98;75.97;102104.34;5029548;28;20434;-67
2021/09/19 01:07:39;;;;;;;811.53;495.80;;;;;;;8.95;76.04;102103.59;5022457;28;20447;-67
2021/09/19 01:10:08;;;;;;;791.87;465.80;;;;;;;8.88;76.48;102113.69;5019263;28;20930;-67
2021/09/19 01:12:37;;;;;;;824.37;511.77;;;;;;;8.82;76.77;102099.63;5022299;28;20542;-68
2021/09/19 01:15:07;;;;;;;783.53;446.77;;;;;;;8.67;76.60;102068.97;5016264;28;20928;-67
2021/09/19 01:17:38;;;;;;;782.40;446.03;;;;;;;8.82;76.21;102108.53;5029167;28;20952;-66
2021/09/19 01:20:09;;;;;;;808.97;472.27;;;;;;;8.62;76.05;102063.81;5030343;28;20996;-67
2021/09/19 01:22:39;;;;;;;793.40;461.87;;;;;;;8.22;76.77;102005.50;5029910;28;20452;-66
2021/09/19 01:25:11;;;;;;;809.63;472.53;;;;;;;8.89;75.94;102101.16;5030023;28;20437;-67
2021/09/19 01:27:39;;;;;;;778.30;438.87;;;;;;;8.99;75.93;102102.53;5029742;28;20488;-67
2021/09/19 01:30:09;;;;;;;772.67;417.17;;;;;;;9.09;74.96;102098.56;5030198;28;20440;-67
2021/09/19 01:32:40;;;;;;;800.80;462.40;;;;;;;8.96;74.72;102078.56;5029397;28;20492;-67
2021/09/19 01:35:10;;;;;;;827.67;503.60;;;;;;;9.12;74.89;102100.25;5029970;28;20510;-67
2021/09/19 01:37:39;;;;;;;829.27;510.37;;;;;;;8.99;75.24;102100.72;5015901;28;20563;-67
2021/09/19 01:40:10;;;;;;;854.90;561.93;;;;;;;9.02;75.81;102091.69;5025691;28;20593;-67
2021/09/19 01:42:39;;;;;;;801.93;433.97;;;;;;;8.99;75.54;102090.03;5029123;28;20434;-67
2021/09/19 01:45:08;;;;;;;840.27;530.73;;;;;;;8.95;75.84;102088.41;5023748;28;20902;-67
2021/09/19 01:47:36;;;;;;;817.70;509.47;;;;;;;8.95;75.62;102084.84;5024520;28;20442;-67
2021/09/19 01:50:06;;;;;;;817.00;494.83;;;;;;;8.88;76.00;102091.38;5023786;28;20437;-66
2021/09/19 01:52:35;;;;;;;806.13;480.30;;;;;;;8.81;76.28;102074.66;5015991;28;20855;-67
2021/09/19 01:55:04;;;;;;;794.87;462.47;;;;;;;8.77;76.71;102080.19;5029523;28;20935;-66
2021/09/19 01:57:34;;;;;;;782.83;439.73;;;;;;;8.76;76.55;102090.03;5028450;28;20450;-67
2021/09/19 02:00:03;;;;;;;798.37;464.83;;;;;;;8.69;76.94;102086.72;5029536;28;20469;-67
2021/09/19 02:02:33;;;;;;;800.87;468.27;;;;;;;8.68;77.59;102081.44;5019053;28;20647;-67
2021/09/19 02:05:04;;;;;;;818.20;492.83;;;;;;;8.54;77.97;102071.22;5027206;28;20449;-67
2021/09/19 02:07:32;;;;;;;795.50;453.60;;;;;;;8.66;77.76;102083.28;5019178;28;20804;-67
2021/09/19 02:10:00;;;;;;;808.10;469.00;;;;;;;8.70;77.25;102090.28;5026220;28;20516;-67
2021/09/19 02:12:28;;;;;;;815.07;473.00;;;;;;;8.72;77.82;102099.13;5029230;28;20453;-67
2021/09/19 02:14:58;;;;;;;795.87;452.97;;;;;;;8.74;78.33;102086.53;5029434;28;20459;-67
2021/09/19 02:17:26;;;;;;;794.63;430.97;;;;;;;8.80;77.94;102082.75;5028760;28;20852;-67
2021/09/19 02:19:54;;;;;;;797.17;456.33;;;;;;;8.75;78.67;102074.91;5028873;28;20483;-67
2021/09/19 02:22:22;;;;;;;791.83;440.13;;;;;;;8.88;77.92;102091.38;5028715;28;20453;-67
2021/09/19 02:24:50;;;;;;;848.83;545.17;;;;;;;8.86;78.04;102088.72;5028818;28;20807;-67
2021/09/19 02:27:20;;;;;;;784.07;435.13;;;;;;;8.89;78.40;102085.97;5027501;28;20441;-67
2021/09/19 02:29:48;;;;;;;779.93;443.10;;;;;;;8.91;78.57;102093.94;5029336;28;20441;-67
2021/09/19 02:32:18;;;;;;;764.03;415.60;;;;;;;8.72;78.43;102064.31;5017966;28;20854;-67
2021/09/19 02:34:46;;;;;;;770.40;425.40;;;;;;;8.89;78.00;102082.41;5029000;28;20451;-67
2021/09/19 02:37:14;;;;;;;796.70;470.47;;;;;;;8.91;77.99;102089.47;5028792;28;20511;-67
2021/09/19 02:39:42;;;;;;;752.70;394.70;;;;;;;9.03;77.31;102083.59;5028928;28;20479;-67
2021/09/19 02:42:10;;;;;;;750.27;404.40;;;;;;;8.93;77.77;102087.59;5025990;28;21026;-67
2021/09/19 02:44:38;;;;;;;724.23;368.67;;;;;;;8.99;77.37;102084.66;5029043;28;20449;-68
2021/09/19 02:47:06;;;;;;;736.97;402.90;;;;;;;8.96;77.25;102084.78;5024135;28;20546;-67
2021/09/19 02:49:35;;;;;;;720.87;373.70;;;;;;;8.94;77.44;102092.00;5015341;28;20582;-67
2021/09/19 02:52:05;;;;;;;724.97;369.30;;;;;;;8.96;77.49;102087.47;5028841;28;20508;-67
2021/09/19 02:54:33;;;;;;;716.27;354.67;;;;;;;8.99;77.18;102086.47;5028479;28;20522;-66
2021/09/19 02:57:01;;;;;;;718.07;355.80;;;;;;;9.00;76.75;102078.38;5026321;28;21069;-67
2021/09/19 02:59:29;;;;;;;703.30;331.13;;;;;;;9.09;77.03;102077.13;5023115;28;20470;-67
2021/09/19 03:01:57;;;;;;;720.50;357.27;;;;;;;9.12;76.66;102062.72;5024171;28;20837;-67
2021/09/19 03:04:26;;;;;;;740.17;383.03;;;;;;;9.09;76.61;102079.78;5021617;28;20451;-67
2021/09/19 03:06:55;;;;;;;749.87;391.80;;;;;;;9.08;77.06;102083.41;5028562;28;20455;-67
2021/09/19 03:09:23;;;;;;;762.53;420.53;;;;;;;9.09;76.54;102089.66;5021006;28;20441;-67
2021/09/19 03:11:51;;;;;;;749.90;400.47;;;;;;;9.09;76.77;102090.50;5028686;28;20442;-67
2021/09/19 03:14:19;;;;;;;728.00;373.47;;;;;;;9.05;76.64;102093.38;5026409;28;20452;-67
2021/09/19 03:16:47;;;;;;;731.17;369.63;;;;;;;9.06;76.87;102100.50;5028364;28;20459;-66
2021/09/19 03:19:15;;;;;;;760.97;426.53;;;;;;;9.07;76.92;102097.75;5019466;28;20484;-67
2021/09/19 03:21:43;;;;;;;741.00;398.57;;;;;;;9.01;77.12;102098.88;5028408;28;20437;-66
2021/09/19 03:24:13;;;;;;;736.73;404.47;;;;;;;9.02;76.91;102105.97;5028648;28;20448;-67
2021/09/19 03:26:41;;;;;;;767.70;436.23;;;;;;;9.04;76.94;102095.19;5028566;28;20436;-67
2021/09/19 03:29:09;;;;;;;742.03;396.37;;;;;;;8.97;77.06;102091.00;5028053;28;20513;-66
2021/09/19 03:31:37;;;;;;;743.33;395.47;;;;;;;8.96;76.98;102092.81;5028569;28;20450;-67
2021/09/19 03:34:05;;;;;;;705.37;339.43;;;;;;;8.99;76.28;102090.03;5032597;28;20826;-67
2021/09/19 03:36:33;;;;;;;720.70;356.33;;;;;;;8.72;76.56;102061.63;5028449;28;20446;-66
2021/09/19 03:39:01;;;;;;;720.07;349.47;;;;;;;8.80;77.05;102088.09;5028566;28;20461;-66
2021/09/19 03:41:31;;;;;;;719.83;355.83;;;;;;;8.74;76.63;102088.34;5029383;28;20453;-67
2021/09/19 03:43:59;;;;;;;704.67;344.67;;;;;;;8.63;77.22;102083.41;5028072;28;20448;-66
2021/09/19 03:46:27;;;;;;;704.80;330.40;;;;;;;8.63;76.86;102089.66;5028462;28;20954;-66
2021/09/19 03:48:55;;;;;;;886.80;420.27;;;;;;;8.63;76.69;102089.66;5015613;28;20468;-67
2021/09/19 03:51:23;;;;;;;718.83;356.97;;;;;;;8.53;76.84;102092.69;5016617;28;20970;-67
2021/09/19 03:53:51;;;;;;;738.70;386.03;;;;;;;8.47;77.97;102092.94;5026080;28;20744;-67
2021/09/19 03:56:20;;;;;;;733.03;375.50;;;;;;;8.38;77.74;102092.34;5021164;28;20459;-66
2021/09/19 03:58:49;;;;;;;716.73;348.50;;;;;;;8.29;78.46;102086.44;5025716;28;20518;-66
2021/09/19 04:01:18;;;;;;;684.20;312.80;;;;;;;8.28;78.71;102082.91;5028431;28;20444;-66
2021/09/19 04:03:46;;;;;;;711.63;354.23;;;;;;;8.24;79.31;102077.69;5026772;28;20464;-66
2021/09/19 04:06:14;;;;;;;724.37;351.37;;;;;;;7.90;79.30;102021.84;5025695;28;20565;-67
2021/09/19 04:08:42;;;;;;;727.60;369.67;;;;;;;8.00;79.24;102048.25;5027013;28;20460;-66
2021/09/19 04:11:10;;;;;;;705.23;332.50;;;;;;;8.09;79.97;102073.78;5027525;28;20661;-67
2021/09/19 04:13:38;;;;;;;706.27;340.53;;;;;;;8.14;79.42;102071.81;5027897;28;20442;-67
2021/09/19 04:16:08;;;;;;;690.53;309.40;;;;;;;8.16;79.54;102072.63;5024607;28;20448;-67
2021/09/19 04:18:36;;;;;;;703.90;326.77;;;;;;;8.17;79.94;102081.53;5022711;28;20445;-67
2021/09/19 04:21:04;;;;;;;719.10;345.97;;;;;;;8.17;79.81;102077.03;5017956;28;21074;-67
2021/09/19 04:23:32;;;;;;;710.63;332.53;;;;;;;8.14;80.11;102077.16;5027753;28;20447;-67
2021/09/19 04:26:00;;;;;;;724.80;348.63;;;;;;;8.22;79.59;102076.88;5027759;28;20456;-67
2021/09/19 04:28:28;;;;;;;715.30;339.83;;;;;;;8.16;80.16;102085.13;5021504;28;20451;-67
2021/09/19 04:30:56;;;;;;;716.47;340.07;;;;;;;8.08;80.28;102085.41;5030737;28;20858;-67
2021/09/19 04:33:26;;;;;;;714.70;341.20;;;;;;;8.10;80.32;102088.91;5031861;28;20495;-66
2021/09/19 04:35:54;;;;;;;701.03;319.43;;;;;;;8.13;80.59;102093.28;5031903;28;20487;-66
2021/09/19 04:38:22;;;;;;;727.87;353.93;;;;;;;8.14;80.39;102093.22;5025227;28;20443;-66
2021/09/19 04:40:50;;;;;;;737.50;375.10;;;;;;;8.14;80.62;102087.84;5029995;28;20472;-66
2021/09/19 04:43:18;;;;;;;734.40;371.67;;;;;;;8.17;80.29;102086.88;5029531;28;20473;-67
2021/09/19 04:45:46;;;;;;;730.63;366.40;;;;;;;8.13;79.99;102099.50;5028288;28;20449;-67
2021/09/19 04:48:14;;;;;;;722.47;352.03;;;;;;;8.18;80.04;102096.66;5031274;28;20460;-67
2021/09/19 04:50:43;;;;;;;746.17;382.67;;;;;;;8.19;80.15;102101.06;5030942;28;20840;-67
2021/09/19 04:53:12;;;;;;;752.13;389.60;;;;;;;8.08;80.23;102091.63;5030246;28;20448;-67
2021/09/19 04:55:40;;;;;;;747.93;383.50;;;;;;;8.16;80.21;102096.69;5030665;28;20446;-67
2021/09/19 04:58:08;;;;;;;748.33;384.50;;;;;;;8.20;80.55;102094.78;5029663;28;20898;-67
2021/09/19 05:00:36;;;;;;;730.17;350.73;;;;;;;8.27;79.98;102096.34;5030601;28;20476;-67
2021/09/19 05:03:04;;;;;;;750.43;392.23;;;;;;;8.28;80.25;102100.75;5030735;28;20436;-67
2021/09/19 05:05:32;;;;;;;735.37;358.37;;;;;;;8.31;80.24;102096.16;5031201;28;20529;-67
2021/09/19 05:08:02;;;;;;;748.80;385.67;;;;;;;8.36;80.47;102101.38;5029711;28;20433;-68
2021/09/19 05:10:30;;;;;;;740.33;371.60;;;;;;;8.40;79.97;102100.34;5030366;28;20453;-66
2021/09/19 05:12:58;;;;;;;739.90;383.87;;;;;;;8.39;79.95;102096.78;5030773;28;20986;-67
2021/09/19 05:15:26;;;;;;;711.17;326.83;;;;;;;8.51;79.82;102097.25;5030370;28;20434;-67
2021/09/19 05:17:54;;;;;;;721.23;350.13;;;;;;;8.46;79.81;102097.41;5030220;28;20448;-67
2021/09/19 05:20:23;;;;;;;748.83;388.87;;;;;;;8.54;79.28;102103.34;5025518;28;20524;-67
2021/09/19 05:22:51;;;;;;;736.33;369.40;;;;;;;8.54;78.90;102110.50;5029216;28;20457;-67
2021/09/19 05:25:21;;;;;;;763.23;383.30;;;;;;;8.60;79.39;102108.50;5031408;28;21879;-67
2021/09/19 05:27:50;;;;;;;742.73;376.17;;;;;;;8.44;78.72;102085.03;5027405;28;20926;-67
2021/09/19 05:30:18;;;;;;;744.73;387.17;;;;;;;8.59;79.30;102108.56;5029868;28;20485;-67
2021/09/19 05:32:47;;;;;;;761.47;405.03;;;;;;;8.60;78.62;102105.81;5027156;28;20451;-67
2021/09/19 05:35:18;;;;;;;755.70;381.60;;;;;;;8.69;78.96;102112.63;5029524;28;20894;-68
2021/09/19 05:37:47;;;;;;;777.37;429.10;;;;;;;8.75;78.66;102095.44;5028044;28;20589;-67
2021/09/19 05:40:16;;;;;;;774.30;410.87;;;;;;;8.57;78.49;102054.16;5044872;28;20473;-67
2021/09/19 05:42:46;;;;;;;779.20;423.77;;;;;;;8.87;78.52;102103.00;5027316;28;20506;-67
2021/09/19 05:45:15;;;;;;;810.37;462.60;;;;;;;8.91;78.52;102108.22;5028847;28;20450;-67
2021/09/19 05:47:43;;;;;;;817.23;479.80;;;;;;;8.96;78.46;102100.00;5029572;28;20437;-67
2021/09/19 05:50:11;;;;;;;806.53;470.77;;;;;;;8.95;78.73;102095.56;5029786;28;20521;-67
2021/09/19 05:52:39;;;;;;;797.07;448.27;;;;;;;9.02;78.41;102105.97;5028990;28;20808;-67
2021/09/19 05:55:08;;;;;;;791.37;443.33;;;;;;;9.04;78.75;102103.22;5023321;28;20441;-67
2021/09/19 05:57:36;;;;;;;786.33;426.53;;;;;;;9.13;77.91;102110.03;5028457;28;20515;-67
2021/09/19 06:00:07;;;;;;;746.50;366.80;;;;;;;9.12;78.04;102109.16;5029335;28;20491;-68
2021/09/19 06:02:35;;;;;;;766.97;393.53;;;;;;;9.21;77.54;102113.28;5027688;28;20449;-66
2021/09/19 06:05:05;;;;;;;812.90;465.17;;;;;;;9.14;77.52;102096.56;5027034;28;20444;-67
2021/09/19 06:07:34;;;;;;;735.53;374.60;;;;;;;8.95;77.44;102061.59;5026885;28;20448;-68
2021/09/19 06:10:02;;;;;;;726.87;354.67;;;;;;;9.22;77.66;102118.59;5027339;28;20483;-68
2021/09/19 06:12:31;;;;;;;740.00;358.47;;;;;;;9.22;77.54;102107.00;5027378;28;20883;-67
2021/09/19 06:15:00;;;;;;;738.97;364.90;;;;;;;9.34;77.42;102110.03;5025616;28;20433;-67
2021/09/19 06:17:32;;;;;;;784.13;421.87;;;;;;;9.41;77.69;102107.09;5027552;28;20552;-68
2021/09/19 06:20:02;;;;;;;767.13;401.03;;;;;;;9.51;77.42;102111.19;5025794;28;20869;-65
2021/09/19 06:22:30;;;;;;;736.90;359.67;;;;;;;9.52;77.21;102116.47;5025897;28;20441;-67
2021/09/19 06:24:58;;;;;;;708.07;302.50;;;;;;;9.54;77.13;102111.91;5026214;28;20689;-67
2021/09/19 06:27:27;;;;;;;710.00;330.37;;;;;;;9.06;77.35;102038.84;5026755;28;20442;-67
2021/09/19 06:29:55;;;;;;;740.77;365.30;;;;;;;9.38;77.47;102097.38;5023053;28;20861;-67
2021/09/19 06:32:23;;;;;;;732.93;351.93;;;;;;;9.53;77.62;102120.91;5021556;28;20904;-67
2021/09/19 06:34:52;;;;;;;790.27;440.27;;;;;;;9.53;77.88;102123.59;5022615;28;20449;-67
2021/09/19 06:37:20;;;;;;;752.87;379.10;;;;;;;9.40;77.65;102086.59;5023825;28;20444;-66
2021/09/19 06:39:48;;;;;;;797.77;440.70;;;;;;;9.55;77.52;102120.84;5023498;28;20445;-67
2021/09/19 06:42:17;;;;;;;807.00;461.63;;;;;;;9.08;77.58;102034.31;5024946;28;21002;-66
2021/09/19 06:44:45;;;;;;;759.80;395.23;;;;;;;9.57;77.52;102101.06;5024782;28;20440;-67
2021/09/19 06:47:13;;;;;;;813.27;469.07;;;;;;;9.75;77.99;102118.19;5024054;28;20456;-67
2021/09/19 06:49:41;;;;;;;783.70;431.77;;;;;;;9.81;78.27;102112.56;5024611;28;20465;-67
2021/09/19 06:52:10;;;;;;;825.60;500.07;;;;;;;9.81;78.47;102114.38;5024634;28;20432;-67
2021/09/19 06:54:38;;;;;;;752.07;388.87;;;;;;;9.76;78.58;102111.00;5025049;28;20472;-67
2021/09/19 06:57:06;;;;;;;760.67;412.10;;;;;;;9.73;78.75;102103.97;5025099;28;20432;-67
2021/09/19 06:59:34;;;;;;;797.03;456.33;;;;;;;9.78;78.42;102111.81;5024852;28;20494;-67
2021/09/19 07:02:02;;;;;;;790.57;452.57;;;;;;;9.84;78.78;102106.19;5025236;28;20559;-67
2021/09/19 07:04:31;;;;;;;806.73;482.23;;;;;;;9.83;79.73;102115.19;5024826;28;20472;-67
2021/09/19 07:06:59;;;;;;;826.40;509.50;;;;;;;9.95;78.80;102115.53;5024820;28;20442;-67
2021/09/19 07:09:28;;;;;;;763.17;412.83;;;;;;;9.99;78.87;102113.56;5025290;28;20452;-67
2021/09/19 07:11:56;;;;;;;759.03;394.23;;;;;;;10.09;78.92;102106.00;5024244;28;20920;-67
2021/09/19 07:14:25;;;;;;;762.27;408.77;;;;;;;10.17;78.19;102114.59;5025746;28;20445;-67
2021/09/19 07:16:53;;;;;;;773.87;424.53;;;;;;;10.16;77.92;102119.09;5025045;28;20436;-67
2021/09/19 07:19:21;;;;;;;708.50;336.03;;;;;;;10.15;77.52;102116.47;5025965;28;20472;-67
2021/09/19 07:21:49;;;;;;;747.03;394.73;;;;;;;10.06;77.53;102122.22;5025014;28;20484;-67
2021/09/19 07:24:17;;;;;;;788.00;447.27;;;;;;;10.09;77.82;102120.28;5024296;28;20438;-67
2021/09/19 07:26:46;;;;;;;806.87;476.23;;;;;;;10.09;78.03;102128.34;5025339;28;21879;-67
2021/09/19 07:29:16;;;;;;;776.47;426.43;;;;;;;10.03;77.43;102112.50;5022639;28;20453;-67
2021/09/19 07:31:45;;;;;;;771.87;425.80;;;;;;;10.15;77.77;102124.53;5026048;28;20488;-67
2021/09/19 07:34:13;;;;;;;761.37;393.33;;;;;;;10.13;76.97;102129.97;5026359;28;20449;-67
2021/09/19 07:36:42;;;;;;;777.30;432.53;;;;;;;10.15;76.99;102124.53;5026057;28;20433;-67
2021/09/19 07:39:10;;;;;;;768.77;423.30;;;;;;;10.17;77.48;102125.34;5025620;28;20438;-67
2021/09/19 07:41:39;;;;;;;767.63;416.50;;;;;;;10.38;77.74;102126.22;5022869;28;20551;-67
2021/09/19 07:44:09;;;;;;;778.90;430.03;;;;;;;10.40;77.60;102133.25;5024135;28;20452;-67
2021/09/19 07:46:37;;;;;;;762.83;391.47;;;;;;;10.36;77.21;102133.47;5024036;28;20924;-67
2021/09/19 07:49:06;;;;;;;745.87;385.90;;;;;;;10.33;76.99;102136.28;5027602;28;20473;-67
2021/09/19 07:51:34;;;;;;;731.27;361.83;;;;;;;10.38;77.31;102135.16;5026899;28;20430;-67
2021/09/19 07:54:03;;;;;;;738.87;375.93;;;;;;;10.47;77.47;102129.38;5027334;28;20769;-67
2021/09/19 07:56:31;;;;;;;766.57;417.03;;;;;;;10.55;76.26;102126.34;5026202;28;21012;-67
2021/09/19 07:58:59;;;;;;;758.40;400.23;;;;;;;10.49;75.99;102127.50;5026655;28;20660;-67
2021/09/19 08:01:28;;;;;;;727.77;353.80;;;;;;;10.49;76.57;102127.50;5021928;28;20477;-67
2021/09/19 08:03:57;;;;;;;730.73;370.07;;;;;;;10.49;77.29;102134.69;5027106;28;20437;-67
2021/09/19 08:06:25;;;;;;;697.60;310.00;;;;;;;10.47;76.54;102129.38;5026153;28;20464;-66
2021/09/19 08:08:54;;;;;;;728.50;374.33;;;;;;;10.53;76.54;102122.84;5023208;28;20484;-66
2021/09/19 08:11:22;;;;;;;729.60;364.80;;;;;;;10.60;75.89;102132.38;5030128;28;21123;-66
2021/09/19 08:13:55;;;;;;;714.33;349.53;;;;;;;10.67;75.89;102139.19;5029731;28;20463;-66
2021/09/19 08:16:23;;;;;;;718.17;354.17;;;;;;;10.62;75.82;102141.22;5042395;28;20466;-66
2021/09/19 08:18:52;;;;;;;743.73;390.30;;;;;;;10.74;74.48;102145.19;5028845;28;20939;-67
2021/09/19 08:21:20;;;;;;;747.87;397.83;;;;;;;10.81;74.60;102136.78;5030587;28;20465;-66
2021/09/19 08:23:48;;;;;;;753.17;403.53;;;;;;;10.84;74.19;102133.94;5044858;28;20437;-67
2021/09/19 08:26:16;;;;;;;747.43;390.20;;;;;;;10.81;74.05;102111.72;5029909;28;21041;-66
2021/09/19 08:28:45;;;;;;;732.47;381.20;;;;;;;10.95;73.95;102140.63;5027405;28;20449;-67
2021/09/19 08:31:13;;;;;;;713.90;343.17;;;;;;;10.58;74.25;102073.34;5027655;28;20784;-67
2021/09/19 08:33:41;;;;;;;697.47;317.77;;;;;;;10.97;73.73;102138.72;5030282;28;20460;-67
2021/09/19 08:36:10;;;;;;;693.40;305.63;;;;;;;10.92;73.33;102146.13;5031650;28;20847;-67
2021/09/19 08:38:38;;;;;;;718.93;352.77;;;;;;;10.96;73.71;102142.34;5028167;28;20461;-67
2021/09/19 08:41:06;;;;;;;747.63;395.30;;;;;;;10.90;73.78;102159.66;5018261;28;20971;-67
2021/09/19 08:43:34;;;;;;;745.40;389.73;;;;;;;10.97;72.56;102141.41;5030663;28;20559;-67
2021/09/19 08:46:03;;;;;;;750.30;398.93;;;;;;;11.02;73.13;102158.19;5029913;28;20488;-67
2021/09/19 08:48:33;;;;;;;789.80;448.43;;;;;;;11.08;72.86;102155.25;5030063;28;20437;-67
2021/09/19 08:51:03;;;;;;;783.03;433.57;;;;;;;11.02;74.32;102136.69;5028775;28;20445;-66
2021/09/19 08:53:32;;;;;;;733.00;365.70;;;;;;;11.28;72.72;102157.84;5029750;28;20449;-66
2021/09/19 08:56:01;;;;;;;756.73;404.77;;;;;;;11.02;72.63;102124.16;5029699;28;20469;-67
2021/09/19 08:58:29;;;;;;;749.93;384.47;;;;;;;11.29;72.47;102156.88;5028835;28;20446;-67
2021/09/19 09:00:59;;;;;;;768.63;427.97;;;;;;;11.02;72.51;102109.81;5027770;28;20453;-67
2021/09/19 09:03:31;;;;;;;753.00;406.77;;;;;;;11.16;72.77;102118.09;5029902;28;20472;-66
2021/09/19 09:06:02;;;;;;;755.83;405.77;;;;;;;11.47;71.63;102163.22;5027941;28;20446;-67
2021/09/19 09:08:33;;;;;;;755.53;399.77;;;;;;;11.61;72.11;102165.22;5028490;28;20863;-67
2021/09/19 09:11:03;;;;;;;756.47;414.77;;;;;;;11.49;71.28;102159.50;5028791;28;20461;-66
2021/09/19 09:13:33;;;;;;;797.07;457.93;;;;;;;11.52;72.38;102142.34;5030242;28;20439;-67
2021/09/19 09:16:06;;;;;;;758.47;409.57;;;;;;;11.65;71.59;102145.31;5029869;28;20435;-67
2021/09/19 09:18:37;;;;;;;756.00;402.93;;;;;;;11.76;70.51;102159.09;5030935;28;20439;-67
2021/09/19 09:21:06;;;;;;;820.03;499.00;;;;;;;11.86;70.23;102155.00;5030065;28;20477;-67
2021/09/19 09:23:38;;;;;;;744.23;394.63;;;;;;;11.82;68.73;102146.22;5030199;28;20479;-67
2021/09/19 09:26:19;;;;;;;789.23;447.10;;;;;;;11.88;68.74;102149.56;5030330;28;20442;-67
2021/09/19 09:28:50;;;;;;;768.80;419.40;;;;;;;12.01;67.61;102156.06;5033096;28;20438;-67
2021/09/19 09:31:27;;;;;;;773.73;441.60;;;;;;;12.06;66.65;102151.31;5030272;28;20832;-67
2021/09/19 09:34:07;;;;;;;773.30;434.83;;;;;;;12.10;67.18;102143.00;5030093;28;20439;-67
2021/09/19 09:36:48;;;;;;;776.03;438.57;;;;;;;12.19;66.12;102141.63;5030268;28;20436;-66
2021/09/19 09:39:35;;;;;;;786.37;448.40;;;;;;;12.10;66.94;102145.69;5030181;28;20818;-66
2021/09/19 09:42:05;;;;;;;786.07;439.30;;;;;;;12.10;65.80;102140.31;5042346;28;21004;-67
2021/09/19 09:44:39;;;;;;;787.00;453.73;;;;;;;12.10;66.92;102147.50;5045324;28;20961;-67
2021/09/19 09:47:10;;;;;;;778.23;437.03;;;;;;;12.14;67.31;102138.31;5015940;28;20954;-67
2021/09/19 09:49:42;;;;;;;788.13;460.07;;;;;;;12.15;67.04;102142.75;5029977;28;20448;-67
2021/09/19 09:52:13;;;;;;;801.00;476.17;;;;;;;11.93;67.60;102121.44;5029649;28;20451;-67
2021/09/19 09:54:48;;;;;;;754.60;410.43;;;;;;;12.19;67.19;102143.47;5045123;28;20453;-67
2021/09/19 09:57:31;;;;;;;771.10;432.73;;;;;;;12.20;67.00;102134.44;5028452;28;20516;-67
2021/09/19 10:00:00;;;;;;;789.93;471.50;;;;;;;12.28;66.70;102137.63;5029561;28;20439;-67
2021/09/19 10:02:31;;;;;;;800.30;464.23;;;;;;;12.17;66.97;102107.66;5029961;28;20919;-66
2021/09/19 10:05:01;;;;;;;782.90;454.17;;;;;;;12.49;67.19;102136.47;5029448;28;20995;-66
2021/09/19 10:07:29;;;;;;;786.20;464.07;;;;;;;12.41;66.32;102144.09;5029647;28;20434;-66
2021/09/19 10:09:59;;;;;;;844.43;529.00;;;;;;;12.43;66.47;102150.25;5029672;28;20430;-67
2021/09/19 10:12:27;;;;;;;808.00;473.60;;;;;;;12.37;65.97;102138.00;5029492;28;20431;-67
2021/09/19 10:14:55;;;;;;;808.40;492.97;;;;;;;12.24;65.75;102128.78;5028139;28;20446;-67
2021/09/19 10:17:25;;;;;;;830.17;505.70;;;;;;;12.39;65.79;102156.78;5029757;28;20517;-67
2021/09/19 10:19:55;;;;;;;854.97;553.17;;;;;;;12.60;66.25;102150.25;5028790;28;20468;-67
2021/09/19 10:22:27;;;;;;;840.83;527.87;;;;;;;12.63;65.23;102155.47;5029343;28;20443;-67
2021/09/19 10:24:55;;;;;;;820.67;496.83;;;;;;;12.09;65.25;102073.06;5029193;28;20486;-67
2021/09/19 10:27:31;;;;;;;830.67;508.10;;;;;;;12.61;64.90;102152.00;5029100;28;20866;-67
2021/09/19 10:30:01;;;;;;;780.07;438.73;;;;;;;12.54;64.52;102155.94;5028933;28;20446;-67
2021/09/19 10:32:33;;;;;;;773.17;431.57;;;;;;;12.56;65.01;102142.41;5028836;28;20778;-67
2021/09/19 10:35:02;;;;;;;785.27;454.00;;;;;;;12.56;64.64;102143.28;5029289;28;20439;-67
2021/09/19 10:37:51;;;;;;;750.23;405.67;;;;;;;12.62;64.42;102142.97;5029518;28;20458;-66
2021/09/19 10:40:35;;;;;;;747.70;395.40;;;;;;;12.78;64.88;102151.06;5029078;28;20435;-66
2021/09/19 10:43:07;;;;;;;772.80;444.93;;;;;;;12.68;64.88;102152.53;5027255;28;20907;-66
2021/09/19 10:45:43;;;;;;;788.63;456.10;;;;;;;12.61;65.11;102146.59;5029054;28;20759;-66
2021/09/19 10:48:16;;;;;;;738.93;394.57;;;;;;;12.68;65.79;102153.41;5028618;28;20950;-67
2021/09/19 10:50:46;;;;;;;766.63;440.77;;;;;;;12.43;65.08;102115.25;5028769;28;20489;-66
2021/09/19 10:53:23;;;;;;;769.27;439.23;;;;;;;12.53;65.00;102159.59;5023797;28;20950;-67
2021/09/19 10:55:56;;;;;;;768.70;432.23;;;;;;;12.22;65.24;102116.38;5026219;28;20546;-66
2021/09/19 10:58:29;;;;;;;786.43;458.20;;;;;;;12.28;65.61;102159.16;5023601;28;20440;-67
2021/09/19 11:01:12;;;;;;;779.87;450.03;;;;;;;12.19;65.49;102162.31;5027838;28;20894;-69
2021/09/19 11:03:42;;;;;;;787.20;452.93;;;;;;;12.04;65.68;102162.16;5025751;28;20476;-67
2021/09/19 11:06:24;;;;;;;805.13;475.73;;;;;;;11.87;66.85;102153.19;5027246;28;20426;-67
2021/09/19 11:08:52;;;;;;;806.03;482.13;;;;;;;11.73;67.39;102156.56;5026526;28;20493;-67